createdAt,value
2018-01-29T00:00:56.044Z,126.07
2018-01-29T00:07:01.331Z,106.20
2018-01-29T00:13:06.573Z,100.03
2018-01-29T00:19:11.908Z,96.33
2018-01-29T00:25:17.070Z,87.93
2018-01-29T00:31:22.114Z,89.87
2018-01-29T00:37:27.220Z,101.30
2018-01-29T00:43:32.313Z,98.20
2018-01-29T00:49:37.318Z,88.97
2018-01-29T00:55:42.365Z,111.40
2018-01-29T01:01:47.557Z,152.97
2018-01-29T01:07:52.817Z,113.50
2018-01-29T01:13:57.914Z,108.63
2018-01-29T01:20:02.931Z,112.10
2018-01-29T01:26:08.268Z,104.40
2018-01-29T01:32:13.361Z,91.33
2018-01-29T01:38:18.653Z,88.20
2018-01-29T01:44:23.957Z,92.03
2018-01-29T01:50:29.177Z,101.80
2018-01-29T01:56:34.278Z,95.67
2018-01-29T02:02:39.327Z,89.80
2018-01-29T02:08:44.398Z,110.97
2018-01-29T02:14:49.542Z,96.77
2018-01-29T02:20:54.831Z,110.00
2018-01-29T02:26:59.939Z,116.93
2018-01-29T02:33:05.376Z,115.17
2018-01-29T02:39:10.527Z,120.27
2018-01-29T02:45:15.700Z,121.90
2018-01-29T02:51:21.160Z,94.97
2018-01-29T02:57:26.763Z,94.00
2018-01-29T03:03:32.066Z,86.00
2018-01-29T03:09:37.176Z,113.43
2018-01-29T03:15:42.363Z,134.03
2018-01-29T03:21:47.546Z,163.67
2018-01-29T03:27:53.066Z,150.00
2018-01-29T03:33:58.530Z,137.33
2018-01-29T03:40:03.732Z,121.23
2018-01-29T03:46:08.872Z,123.67
2018-01-29T03:52:14.002Z,171.10
2018-01-29T03:58:19.262Z,163.60
2018-01-29T04:04:24.523Z,163.27
2018-01-29T04:10:30.134Z,153.07
2018-01-29T04:16:35.657Z,149.07
2018-01-29T04:22:40.673Z,113.90
2018-01-29T04:28:45.997Z,158.03
2018-01-29T04:34:51.314Z,132.87
2018-01-29T04:40:56.858Z,112.50
2018-01-29T04:47:01.103Z,125.53
2018-01-29T04:53:05.361Z,128.63
2018-01-29T04:59:09.466Z,130.57
2018-01-29T05:05:13.428Z,131.63
2018-01-29T05:11:17.432Z,115.63
2018-01-29T05:17:21.367Z,98.47
2018-01-29T05:23:25.528Z,110.73
2018-01-29T05:29:29.816Z,104.80
2018-01-29T05:35:37.099Z,138.90
2018-01-29T05:41:41.777Z,150.57
2018-01-29T05:47:46.909Z,120.67
2018-01-29T05:53:50.947Z,124.80
2018-01-29T05:59:55.690Z,126.80
2018-01-29T06:06:01.317Z,155.27
2018-01-29T06:12:06.419Z,188.63
2018-01-29T06:18:11.706Z,221.67
2018-01-29T06:24:16.898Z,186.30
2018-01-29T06:30:22.231Z,202.87
2018-01-29T06:36:26.889Z,247.83
2018-01-29T06:42:31.122Z,256.03
2018-01-29T06:48:35.047Z,171.13
2018-01-29T06:54:39.275Z,174.27
2018-01-29T07:00:44.109Z,200.73
2018-01-29T07:06:48.537Z,169.17
2018-01-29T07:12:53.005Z,142.10
2018-01-29T07:18:57.412Z,137.57
2018-01-29T07:25:01.370Z,135.67
2018-01-29T07:31:05.484Z,136.47
2018-01-29T07:37:09.367Z,136.97
2018-01-29T07:43:13.749Z,139.57
2018-01-29T07:49:17.836Z,127.60
2018-01-29T07:55:21.892Z,136.23
2018-01-29T08:01:26.692Z,119.83
2018-01-29T08:07:30.762Z,122.43
2018-01-29T08:13:34.782Z,118.77
2018-01-29T08:19:39.181Z,138.83
2018-01-29T08:25:43.157Z,133.23
2018-01-29T08:31:48.081Z,141.17
2018-01-29T08:37:52.235Z,123.00
2018-01-29T08:43:57.160Z,155.77
2018-01-29T08:50:01.099Z,117.37
2018-01-29T08:56:05.866Z,124.70
2018-01-29T09:02:09.903Z,138.93
2018-01-29T09:08:13.912Z,130.33
2018-01-29T12:28:21.743Z,107.03
2018-01-29T12:34:26.869Z,131.43
2018-01-29T12:40:32.047Z,128.30
2018-01-29T12:46:37.412Z,110.40
2018-01-29T12:52:42.576Z,95.93
2018-01-29T12:58:48.078Z,96.78
2018-01-29T13:04:53.125Z,132.20
2018-01-29T13:10:58.547Z,108.32
2018-01-29T20:10:21.257Z,121.50
2018-01-29T20:16:26.601Z,87.77
2018-01-29T20:22:31.766Z,146.40
2018-01-29T20:28:37.078Z,128.50
2018-01-29T20:34:42.229Z,137.47
2018-01-29T20:40:48.102Z,146.63
2018-01-29T20:46:53.252Z,130.43
2018-01-29T20:52:58.249Z,178.27
2018-01-29T20:59:03.360Z,197.40
2018-01-29T21:05:09.879Z,189.40
2018-01-29T21:11:15.039Z,172.07
2018-01-29T21:17:20.192Z,162.30
2018-01-29T21:23:25.474Z,126.33
2018-01-29T21:29:30.493Z,155.57
2018-01-29T21:35:35.825Z,164.90
2018-01-29T21:41:41.354Z,225.93
2018-01-29T21:47:46.474Z,384.00
2018-01-29T21:53:51.599Z,435.17
2018-01-29T21:59:57.092Z,364.47
2018-01-29T22:06:02.122Z,380.23
2018-01-29T22:12:07.278Z,386.43
2018-01-29T22:18:12.377Z,326.87
2018-01-29T22:24:17.772Z,257.27
2018-01-29T22:30:22.977Z,226.17
2018-01-29T22:36:28.046Z,194.23
2018-01-29T22:42:35.157Z,183.73
2018-01-29T22:48:40.290Z,185.27
2018-01-29T22:54:45.318Z,195.60
2018-01-29T23:00:50.513Z,160.97
2018-01-29T23:06:55.542Z,148.40
2018-01-29T23:13:00.508Z,132.13
2018-01-29T23:19:05.534Z,162.63
2018-01-29T23:25:10.772Z,182.60
2018-01-29T23:31:15.877Z,140.57
2018-01-29T23:37:21.225Z,143.93
2018-01-29T23:43:26.721Z,138.87
2018-01-29T23:49:31.870Z,140.97
2018-01-29T23:55:37.106Z,132.30
